createdAt,value
2023-05-22T05:03:58.325Z,11.40
2023-05-22T05:07:00.116Z,11.50
2023-05-22T05:10:01.835Z,11.50
2023-05-22T05:13:03.704Z,11.50
2023-05-22T05:16:06.325Z,11.70
2023-05-22T05:19:08.119Z,11.70
2023-05-22T05:22:10.138Z,11.70
2023-05-22T05:25:12.281Z,11.70
2023-05-22T05:28:13.989Z,11.70
2023-05-22T05:31:15.715Z,11.70
2023-05-22T05:34:17.438Z,11.90
2023-05-22T05:37:19.211Z,11.90
2023-05-22T05:40:20.907Z,11.90
2023-05-22T05:43:25.331Z,12.00
2023-05-22T05:46:27.196Z,12.00
2023-05-22T05:49:28.957Z,12.10
2023-05-22T05:52:32.753Z,12.10
2023-05-22T05:55:34.725Z,12.10
2023-05-22T05:58:36.534Z,12.20
2023-05-22T06:01:39.981Z,12.20
2023-05-22T06:04:42.640Z,12.20
2023-05-22T06:07:44.594Z,12.30
2023-05-22T06:10:47.274Z,12.30
2023-05-22T06:13:49.209Z,12.30
2023-05-22T06:16:50.940Z,12.30
2023-05-22T06:19:52.658Z,12.50
2023-05-22T06:22:54.537Z,12.50
2023-05-22T06:25:56.322Z,12.50
2023-05-22T06:28:58.147Z,12.70
2023-05-22T06:32:00.115Z,12.80
2023-05-22T06:35:01.998Z,12.80
2023-05-22T06:38:04.011Z,12.90
2023-05-22T06:41:06.461Z,13.00
2023-05-22T06:44:08.182Z,13.10
2023-05-22T06:47:10.073Z,13.10
2023-05-22T06:50:11.928Z,13.10
2023-05-22T06:53:13.796Z,13.10
2023-05-22T06:56:15.513Z,13.20
2023-05-22T06:59:17.327Z,13.20
2023-05-22T07:02:19.102Z,13.10
2023-05-22T07:05:20.866Z,13.10
2023-05-22T07:08:22.598Z,13.10
2023-05-22T07:11:24.434Z,13.10
2023-05-22T07:14:26.554Z,13.20
2023-05-22T07:17:28.445Z,13.30
2023-05-22T07:20:30.309Z,13.40
2023-05-22T07:23:32.183Z,13.50
2023-05-22T07:26:37.394Z,13.70
2023-05-22T07:29:39.276Z,13.90
2023-05-22T07:32:41.436Z,14.00
2023-05-22T07:35:45.637Z,14.10
2023-05-22T07:38:47.399Z,14.20
2023-05-22T07:41:53.301Z,14.30
2023-05-22T07:44:56.165Z,14.50
2023-05-22T07:47:59.042Z,14.70
2023-05-22T07:51:00.863Z,14.90
2023-05-22T07:54:02.639Z,15.00
2023-05-22T07:57:04.477Z,15.10
2023-05-22T08:00:09.431Z,15.10
2023-05-22T08:03:12.392Z,15.00
2023-05-22T08:06:16.219Z,15.00
2023-05-22T08:09:18.013Z,15.20
2023-05-22T08:12:19.825Z,15.50
2023-05-22T08:15:21.555Z,15.60
2023-05-22T08:18:23.272Z,15.60
2023-05-22T08:21:25.120Z,15.90
2023-05-22T08:24:28.601Z,16.10
2023-05-22T08:27:30.414Z,16.00
2023-05-22T08:30:32.094Z,15.90
2023-05-22T08:33:34.109Z,15.60
2023-05-22T08:36:35.820Z,15.50
2023-05-22T08:39:37.633Z,15.60
2023-05-22T08:42:39.363Z,15.60
2023-05-22T08:45:42.485Z,15.60
2023-05-22T08:48:44.901Z,15.80
2023-05-22T08:51:48.259Z,15.80
2023-05-22T08:54:55.181Z,15.80
2023-05-22T08:57:57.333Z,15.90
2023-05-22T09:00:59.064Z,15.90
2023-05-22T09:04:01.891Z,16.00
2023-05-22T09:07:05.517Z,16.00
2023-05-22T09:10:07.972Z,16.00
2023-05-22T09:13:09.850Z,15.90
2023-05-22T09:16:12.629Z,15.90
2023-05-22T09:19:17.605Z,15.80
2023-05-22T09:22:20.460Z,15.60
2023-05-22T09:25:23.549Z,15.50
2023-05-22T09:28:25.538Z,15.30
2023-05-22T09:31:28.946Z,15.20
2023-05-22T09:34:30.823Z,15.30
2023-05-22T09:37:36.299Z,15.50
2023-05-22T09:40:38.784Z,15.60
2023-05-22T09:43:40.831Z,15.80
2023-05-22T09:46:45.197Z,15.80
2023-05-22T09:49:47.508Z,16.00
2023-05-22T09:52:49.285Z,16.00
2023-05-22T09:55:50.983Z,15.80
2023-05-22T09:58:52.761Z,15.60
2023-05-22T10:01:54.560Z,15.50
2023-05-22T10:04:56.436Z,15.40
2023-05-22T10:08:04.019Z,15.40
2023-05-22T10:11:06.420Z,15.30
2023-05-22T10:14:08.249Z,15.10
2023-05-22T10:17:11.324Z,15.00
2023-05-22T10:20:13.255Z,14.90
2023-05-22T10:23:17.810Z,14.80
2023-05-22T10:26:19.950Z,14.80
2023-05-22T10:29:46.805Z,14.90
2023-05-22T10:32:56.834Z,15.00
2023-05-22T10:36:03.975Z,15.30
2023-05-22T10:40:13.457Z,15.50
2023-05-22T10:43:15.305Z,15.60
2023-05-22T10:46:17.170Z,16.00
2023-05-22T10:49:23.377Z,16.20
2023-05-22T10:52:25.200Z,16.50
2023-05-22T10:55:26.909Z,16.90
2023-05-22T10:58:29.353Z,17.20
2023-05-22T11:01:35.241Z,17.40
2023-05-22T11:04:37.051Z,17.50
2023-05-22T11:07:40.920Z,17.70
2023-05-22T11:10:53.117Z,17.80
2023-05-22T11:14:03.206Z,17.80
2023-05-22T11:17:08.362Z,18.20
2023-05-22T11:20:20.261Z,18.40
2023-05-22T11:23:23.803Z,18.40
2023-05-22T11:26:27.841Z,18.30
2023-05-22T11:29:30.471Z,18.10
2023-05-22T11:32:32.450Z,18.00
2023-05-22T11:35:34.264Z,18.00
2023-05-22T11:38:36.125Z,18.00
2023-05-22T11:41:38.061Z,18.30
2023-05-22T11:44:40.547Z,18.40
2023-05-22T11:47:43.537Z,18.50
2023-05-22T11:50:45.440Z,18.50
2023-05-22T11:53:48.020Z,18.50
2023-05-22T11:56:49.715Z,18.60
2023-05-22T11:59:51.742Z,18.50
2023-05-22T12:02:53.591Z,18.30
2023-05-22T12:05:55.644Z,18.10
2023-05-22T12:08:57.351Z,18.00
2023-05-22T12:11:59.140Z,17.80
2023-05-22T12:15:00.931Z,17.50
2023-05-22T12:18:02.756Z,17.50
2023-05-22T12:21:08.242Z,17.30
2023-05-22T12:24:10.558Z,17.20
2023-05-22T12:27:12.759Z,17.30
2023-05-22T12:30:15.010Z,17.20
2023-05-22T12:33:17.099Z,17.20
2023-05-22T12:36:18.806Z,17.00
2023-05-22T12:39:21.229Z,17.00
2023-05-22T12:42:23.124Z,17.00
2023-05-22T12:45:25.068Z,17.10
2023-05-22T12:48:26.791Z,17.10
2023-05-22T12:51:35.559Z,17.20
2023-05-22T12:54:37.298Z,17.20
2023-05-22T12:57:39.027Z,17.30
2023-05-22T13:00:41.200Z,17.20
2023-05-22T13:03:43.171Z,17.20
2023-05-22T13:06:44.864Z,17.20
2023-05-22T13:09:46.556Z,17.20
2023-05-22T13:12:51.090Z,17.10
2023-05-22T13:15:52.768Z,17.00
2023-05-22T13:18:54.588Z,16.90
2023-05-22T13:21:56.411Z,16.70
2023-05-22T13:24:58.076Z,16.70
2023-05-22T13:28:00.173Z,16.70
2023-05-22T13:31:01.982Z,16.70
2023-05-22T13:34:04.586Z,16.70
2023-05-22T13:37:06.310Z,16.70
2023-05-22T13:40:08.782Z,16.90
2023-05-22T13:43:10.971Z,17.10
2023-05-22T13:46:12.770Z,17.30
2023-05-22T13:49:14.488Z,17.30
2023-05-22T13:52:16.371Z,17.30
2023-05-22T13:55:18.126Z,17.40
2023-05-22T13:58:19.815Z,17.40
2023-05-22T14:01:21.565Z,17.40
2023-05-22T14:04:23.459Z,17.40
2023-05-22T14:07:25.198Z,17.30
2023-05-22T14:10:26.914Z,17.40
2023-05-22T14:13:28.811Z,17.40
2023-05-22T14:16:30.742Z,17.50
2023-05-22T14:19:32.549Z,17.70
2023-05-22T14:22:47.932Z,17.80
2023-05-22T14:25:56.768Z,18.00
2023-05-22T14:28:58.516Z,18.20
2023-05-22T14:32:04.269Z,18.50
2023-05-22T14:35:06.333Z,18.90
2023-05-22T14:38:08.054Z,19.00
2023-05-22T14:41:10.667Z,19.10
2023-05-22T14:44:12.434Z,19.10
2023-05-22T14:47:14.156Z,19.20
2023-05-22T14:50:19.726Z,19.20
2023-05-22T14:53:22.069Z,19.10
2023-05-22T14:56:24.706Z,19.20
2023-05-22T14:59:26.473Z,19.10
2023-05-22T15:02:28.265Z,19.30
2023-05-22T15:05:30.156Z,19.30
2023-05-22T15:08:31.858Z,19.20
2023-05-22T15:11:33.612Z,19.20
2023-05-22T15:14:35.476Z,19.50
2023-05-22T15:17:37.167Z,19.70
2023-05-22T15:20:39.547Z,19.90
2023-05-22T15:23:41.613Z,20.00
2023-05-22T15:26:43.323Z,20.30
2023-05-22T15:29:45.032Z,20.60
2023-05-22T15:32:47.016Z,20.90
2023-05-22T15:35:48.750Z,21.30
2023-05-22T15:38:50.519Z,21.70
2023-05-22T15:42:05.236Z,22.10
2023-05-22T15:45:08.521Z,22.50
2023-05-22T15:48:10.719Z,22.90
2023-05-22T15:51:12.739Z,23.00
2023-05-22T15:54:14.409Z,23.20
2023-05-22T15:57:16.372Z,23.50
2023-05-22T16:00:18.822Z,23.40
2023-05-22T16:03:20.753Z,23.40
2023-05-22T16:06:23.283Z,23.40
2023-05-22T16:09:25.150Z,23.40
2023-05-22T16:12:26.885Z,23.10
2023-05-22T16:15:28.632Z,23.00
2023-05-22T16:18:30.435Z,22.70
2023-05-22T16:21:32.291Z,22.80
2023-05-22T16:24:34.204Z,22.80
2023-05-22T16:27:35.915Z,23.10
2023-05-22T16:30:39.889Z,22.90
2023-05-22T16:33:41.883Z,22.20
2023-05-22T16:36:43.872Z,21.60
2023-05-22T16:39:46.425Z,21.10
2023-05-22T16:42:48.468Z,20.90
2023-05-22T16:45:51.300Z,20.60
2023-05-22T16:48:53.102Z,20.30
2023-05-22T16:51:55.389Z,20.00
2023-05-22T16:54:57.056Z,19.90
2023-05-22T16:57:59.148Z,19.80
2023-05-22T17:01:01.382Z,19.70
2023-05-22T17:04:03.224Z,19.50
2023-05-22T17:07:05.607Z,19.50
2023-05-22T17:10:07.753Z,19.60
2023-05-22T17:13:10.404Z,19.70
2023-05-22T17:16:12.145Z,19.70
2023-05-22T17:19:13.902Z,19.70
2023-05-22T17:22:16.330Z,19.70
2023-05-22T17:25:18.145Z,19.60
2023-05-22T17:28:19.963Z,19.50
2023-05-22T17:31:22.773Z,19.30
2023-05-22T17:34:24.539Z,19.10
2023-05-22T17:37:26.217Z,19.00
2023-05-22T17:40:43.144Z,19.00
2023-05-22T17:43:46.654Z,18.90
2023-05-22T17:46:49.464Z,19.00
2023-05-22T17:49:51.208Z,18.90
2023-05-22T17:52:53.259Z,18.70
2023-05-22T17:55:54.933Z,18.50
2023-05-22T17:58:56.798Z,18.30
2023-05-22T18:01:58.639Z,18.20
2023-05-22T18:05:00.379Z,18.20
2023-05-22T18:08:02.118Z,18.30
2023-05-22T18:11:05.068Z,18.30
2023-05-22T18:14:06.811Z,18.30
2023-05-22T18:17:08.497Z,18.00
2023-05-22T18:20:12.120Z,17.80
2023-05-22T18:23:16.242Z,17.70
2023-05-22T18:26:18.038Z,17.60
2023-05-22T18:29:19.822Z,17.50
2023-05-22T18:32:24.807Z,17.40
2023-05-22T18:35:26.499Z,17.30
2023-05-22T18:38:29.959Z,17.20
2023-05-22T18:41:32.001Z,17.20
2023-05-22T18:44:33.722Z,17.20
2023-05-22T18:47:35.607Z,17.10
2023-05-22T18:50:37.369Z,17.00
2023-05-22T18:53:39.179Z,16.90
2023-05-22T18:56:41.015Z,16.80
2023-05-22T18:59:43.499Z,16.70
2023-05-22T19:02:45.313Z,16.60
2023-05-22T19:05:47.043Z,16.50
2023-05-22T19:08:49.112Z,16.40
2023-05-22T19:11:50.959Z,16.20
2023-05-22T19:14:52.706Z,16.10
2023-05-22T19:17:54.718Z,16.00
2023-05-22T19:20:56.580Z,16.00
2023-05-22T19:23:58.363Z,15.80
2023-05-22T19:27:00.088Z,15.80
2023-05-22T19:30:01.823Z,15.60
2023-05-22T19:33:04.450Z,15.60
2023-05-22T19:36:07.318Z,15.50
2023-05-22T19:39:09.088Z,15.40
2023-05-22T19:42:11.263Z,15.40
2023-05-22T19:45:13.018Z,15.30
2023-05-22T19:48:14.915Z,15.20
2023-05-22T19:51:16.926Z,15.10
2023-05-22T19:54:18.631Z,15.00
2023-05-22T19:57:20.420Z,15.00
2023-05-22T20:00:22.707Z,14.90
2023-05-22T20:03:24.752Z,14.80
2023-05-22T20:06:31.261Z,14.70
2023-05-22T20:09:32.996Z,14.60
2023-05-22T20:12:34.877Z,14.60
2023-05-22T20:15:37.909Z,14.50
2023-05-22T20:18:41.021Z,14.40
2023-05-22T20:21:43.071Z,14.30
2023-05-22T20:24:44.744Z,14.30
2023-05-22T20:27:46.480Z,14.20
2023-05-22T20:30:49.127Z,14.10
2023-05-22T20:33:50.819Z,14.00
2023-05-22T20:36:55.880Z,14.00
2023-05-22T20:40:03.529Z,13.90
2023-05-22T20:43:05.362Z,13.90
2023-05-22T20:46:07.268Z,13.80
2023-05-22T20:49:09.070Z,13.70
2023-05-22T20:52:13.329Z,13.70
2023-05-22T20:55:15.052Z,13.60
2023-05-22T20:58:16.759Z,13.60
2023-05-22T21:01:18.742Z,13.50
2023-05-22T21:04:20.704Z,13.50
2023-05-22T21:07:22.496Z,13.40
2023-05-22T21:10:24.271Z,13.30
2023-05-22T21:13:26.188Z,13.30
2023-05-22T21:16:27.964Z,13.30
2023-05-22T21:19:29.749Z,13.10
2023-05-22T21:22:31.737Z,13.10
2023-05-22T21:25:33.495Z,13.10
2023-05-22T21:28:35.192Z,13.10
2023-05-22T21:31:37.083Z,13.00
2023-05-22T21:34:38.847Z,12.90
2023-05-22T21:37:40.716Z,12.90
